createdAt,value
2018-11-05T00:00:49.152Z,7.60
2018-11-05T00:01:54.625Z,7.50
2018-11-05T00:03:00.163Z,7.60
2018-11-05T00:04:05.917Z,7.60
2018-11-05T00:05:11.958Z,7.50
2018-11-05T00:06:17.382Z,7.50
2018-11-05T00:07:22.870Z,7.50
2018-11-05T00:08:28.364Z,7.50
2018-11-05T00:09:33.845Z,7.40
2018-11-05T00:10:39.267Z,7.40
2018-11-05T00:11:44.785Z,7.30
2018-11-05T00:12:50.356Z,7.30
2018-11-05T00:13:55.785Z,7.20
2018-11-05T00:15:01.278Z,7.20
2018-11-05T00:16:06.909Z,7.10
2018-11-05T00:17:12.393Z,7.00
2018-11-05T00:18:17.857Z,7.00
2018-11-05T00:19:23.323Z,7.00
2018-11-05T00:20:28.772Z,6.90
2018-11-05T00:21:34.210Z,6.90
2018-11-05T00:22:39.785Z,7.00
2018-11-05T00:23:45.220Z,7.00
2018-11-05T00:24:50.663Z,7.10
2018-11-05T00:25:56.151Z,7.10
2018-11-05T00:27:01.654Z,7.20
2018-11-05T00:28:07.398Z,7.20
2018-11-05T00:29:12.890Z,7.20
2018-11-05T00:30:18.334Z,7.20
2018-11-05T00:31:23.777Z,7.20
2018-11-05T00:32:29.239Z,7.20
2018-11-05T00:33:34.836Z,7.20
2018-11-05T00:34:40.381Z,7.20
2018-11-05T00:35:45.922Z,7.20
2018-11-05T00:36:51.485Z,7.30
2018-11-05T00:37:56.933Z,7.30
2018-11-05T00:39:02.512Z,7.40
2018-11-05T00:40:11.537Z,7.50
2018-11-05T00:41:16.985Z,7.50
2018-11-05T00:42:22.547Z,7.50
2018-11-05T00:43:28.040Z,7.50
2018-11-05T00:44:33.512Z,7.60
2018-11-05T00:45:39.092Z,7.60
2018-11-05T00:46:44.593Z,7.50
2018-11-05T00:47:50.221Z,7.50
2018-11-05T00:48:55.659Z,7.50
2018-11-05T00:50:01.144Z,7.40
2018-11-05T00:51:06.726Z,7.40
2018-11-05T00:52:12.181Z,7.40
2018-11-05T00:53:17.705Z,7.40
2018-11-05T00:54:23.112Z,7.50
2018-11-05T00:55:28.647Z,7.40
2018-11-05T00:56:34.620Z,7.30
2018-11-05T00:57:40.066Z,7.30
2018-11-05T00:58:45.500Z,7.30
2018-11-05T00:59:50.945Z,7.40
2018-11-05T01:00:56.384Z,7.40
2018-11-05T01:02:01.871Z,7.40
2018-11-05T01:03:07.391Z,7.50
2018-11-05T01:04:12.851Z,7.50
2018-11-05T01:05:18.405Z,7.50
2018-11-05T01:06:23.946Z,7.50
2018-11-05T01:07:29.428Z,7.40
2018-11-05T01:08:34.853Z,7.40
2018-11-05T01:09:40.333Z,7.40
2018-11-05T01:10:45.838Z,7.30
2018-11-05T01:11:51.461Z,7.30
2018-11-05T01:12:56.995Z,7.30
2018-11-05T01:14:02.419Z,7.20
2018-11-05T01:15:11.735Z,7.20
2018-11-05T01:16:17.160Z,7.20
2018-11-05T01:17:22.608Z,7.20
2018-11-05T01:18:28.145Z,7.20
2018-11-05T01:19:33.625Z,7.10
2018-11-05T01:20:39.184Z,7.10
2018-11-05T01:21:44.642Z,7.10
2018-11-05T01:22:50.140Z,7.10
2018-11-05T01:23:55.636Z,7.00
2018-11-05T01:25:01.084Z,7.00
2018-11-05T01:26:06.718Z,7.00
2018-11-05T01:27:12.141Z,6.90
2018-11-05T01:28:17.656Z,6.90
2018-11-05T01:29:23.170Z,6.90
2018-11-05T01:30:28.606Z,6.80
2018-11-05T01:31:34.158Z,6.80
2018-11-05T01:32:39.673Z,6.80
2018-11-05T01:33:45.183Z,6.80
2018-11-05T01:34:50.632Z,6.70
2018-11-05T01:35:56.121Z,6.80
2018-11-05T01:37:01.657Z,6.80
2018-11-05T01:38:07.121Z,6.70
2018-11-05T01:39:12.668Z,6.70
2018-11-05T01:40:18.117Z,6.80
2018-11-05T01:41:23.593Z,6.80
2018-11-05T01:42:29.144Z,6.80
2018-11-05T01:43:34.564Z,6.90
2018-11-05T01:44:40.057Z,7.00
2018-11-05T01:45:45.512Z,7.10
2018-11-05T01:46:50.984Z,7.10
2018-11-05T01:47:56.468Z,7.10
2018-11-05T01:49:02.451Z,7.00
2018-11-05T01:50:10.252Z,7.00
2018-11-05T01:51:15.752Z,6.90
2018-11-05T01:52:21.166Z,6.90
2018-11-05T01:53:26.661Z,6.90
2018-11-05T01:54:32.218Z,6.90
2018-11-05T01:55:37.756Z,7.00
2018-11-05T01:56:43.321Z,7.00
2018-11-05T01:57:48.876Z,7.10
2018-11-05T01:58:54.322Z,7.00
2018-11-05T01:59:59.841Z,7.00
2018-11-05T02:01:05.852Z,6.90
2018-11-05T02:02:11.339Z,6.80
2018-11-05T02:03:16.761Z,6.90
2018-11-05T02:04:22.192Z,6.90
2018-11-05T02:05:27.656Z,6.90
2018-11-05T02:06:33.154Z,6.90
2018-11-05T02:07:38.594Z,6.90
2018-11-05T02:08:44.120Z,7.00
2018-11-05T02:09:49.589Z,6.90
2018-11-05T02:10:55.029Z,7.00
2018-11-05T02:12:00.591Z,7.00
2018-11-05T02:13:06.170Z,6.90
2018-11-05T02:14:11.752Z,6.90
2018-11-05T02:15:17.216Z,6.90
2018-11-05T02:16:22.688Z,6.90
2018-11-05T02:17:28.180Z,6.90
2018-11-05T02:18:33.639Z,6.80
2018-11-05T02:19:39.178Z,6.80
2018-11-05T02:20:44.672Z,6.80
2018-11-05T02:21:50.117Z,6.80
2018-11-05T02:22:55.577Z,6.70
2018-11-05T02:24:00.993Z,6.80
2018-11-05T02:25:07.970Z,6.90
2018-11-05T02:26:13.644Z,6.90
2018-11-05T02:27:19.128Z,6.90
2018-11-05T02:28:24.631Z,7.00
2018-11-05T02:29:30.160Z,6.90
2018-11-05T02:30:35.645Z,6.90
2018-11-05T02:31:41.104Z,6.90
2018-11-05T02:32:47.448Z,6.80
2018-11-05T02:33:52.914Z,6.90
2018-11-05T02:34:58.459Z,6.90
2018-11-05T02:36:03.951Z,6.90
2018-11-05T02:37:09.470Z,6.90
2018-11-05T02:38:14.902Z,7.00
2018-11-05T02:39:20.369Z,7.10
2018-11-05T02:40:25.805Z,7.00
2018-11-05T02:41:31.231Z,7.00
2018-11-05T02:42:36.682Z,7.00
2018-11-05T02:43:42.285Z,7.10
2018-11-05T02:44:47.949Z,7.10
2018-11-05T02:45:53.352Z,7.20
2018-11-05T02:46:58.884Z,7.20
2018-11-05T02:48:04.369Z,7.30
2018-11-05T02:49:09.915Z,7.30
2018-11-05T02:50:16.096Z,7.30
2018-11-05T02:51:21.532Z,7.30
2018-11-05T02:52:26.932Z,7.30
2018-11-05T02:53:32.439Z,7.30
2018-11-05T02:54:37.930Z,7.30
2018-11-05T02:55:43.408Z,7.30
2018-11-05T02:56:48.824Z,7.30
2018-11-05T02:57:54.243Z,7.30
2018-11-05T02:58:59.686Z,7.40
2018-11-05T03:00:07.208Z,7.30
2018-11-05T03:01:12.817Z,7.40
2018-11-05T03:02:18.200Z,7.40
2018-11-05T03:03:23.779Z,7.40
2018-11-05T03:04:29.095Z,7.40
2018-11-05T03:05:34.509Z,7.40
2018-11-05T03:06:39.994Z,7.40
2018-11-05T03:07:46.355Z,7.40
2018-11-05T03:08:51.762Z,7.40
2018-11-05T03:09:57.256Z,7.40
2018-11-05T03:11:02.710Z,7.40
2018-11-05T03:12:08.293Z,7.40
2018-11-05T03:13:13.802Z,7.50
2018-11-05T03:14:19.268Z,7.50
2018-11-05T03:15:24.779Z,7.60
2018-11-05T03:16:30.185Z,7.60
2018-11-05T03:17:35.729Z,7.60
2018-11-05T03:18:41.129Z,7.70
2018-11-05T03:19:46.598Z,7.70
2018-11-05T03:20:52.031Z,7.70
2018-11-05T03:21:57.465Z,7.70
2018-11-05T03:23:02.954Z,7.80
2018-11-05T03:24:08.388Z,7.80
2018-11-05T03:25:13.857Z,7.80
2018-11-05T03:26:19.351Z,7.80
2018-11-05T03:27:24.794Z,7.80
2018-11-05T03:28:30.272Z,7.80
2018-11-05T03:29:35.734Z,7.80
2018-11-05T03:30:41.149Z,7.80
2018-11-05T03:31:46.632Z,7.90
2018-11-05T03:32:52.119Z,7.90
2018-11-05T03:33:57.567Z,7.90
2018-11-05T03:35:03.027Z,8.00
2018-11-05T03:36:08.629Z,7.90
2018-11-05T03:37:14.153Z,8.00
2018-11-05T03:38:19.585Z,8.00
2018-11-05T03:39:25.027Z,8.00
2018-11-05T03:40:30.498Z,8.00
2018-11-05T03:41:35.962Z,8.00
2018-11-05T03:42:42.196Z,8.10
2018-11-05T03:43:47.669Z,8.00
2018-11-05T03:44:53.161Z,8.00
2018-11-05T03:45:58.638Z,8.00
2018-11-05T03:47:04.074Z,8.00
2018-11-05T03:48:09.548Z,8.00
2018-11-05T03:49:15.236Z,8.00
2018-11-05T03:50:20.669Z,8.00
2018-11-05T03:51:26.120Z,8.00
2018-11-05T03:52:31.636Z,8.10
2018-11-05T03:53:37.042Z,8.00
2018-11-05T03:54:42.483Z,8.00
2018-11-05T03:55:48.030Z,8.10
2018-11-05T03:56:53.469Z,8.10
2018-11-05T03:57:58.906Z,8.20
2018-11-05T03:59:04.408Z,8.20
2018-11-05T04:00:12.244Z,8.20
2018-11-05T04:01:17.758Z,8.20
2018-11-05T04:02:23.244Z,8.20
2018-11-05T04:03:28.879Z,8.20
2018-11-05T04:04:34.309Z,8.20
2018-11-05T04:05:39.833Z,8.20
2018-11-05T04:06:45.453Z,8.10
2018-11-05T04:07:51.202Z,8.20
2018-11-05T04:08:56.833Z,8.20
2018-11-05T04:10:02.693Z,8.20
2018-11-05T04:11:08.234Z,8.20
2018-11-05T04:12:13.809Z,8.20
2018-11-05T04:13:19.305Z,8.20
2018-11-05T04:14:24.789Z,8.20
2018-11-05T04:15:30.420Z,8.30
2018-11-05T04:16:35.799Z,8.30
2018-11-05T04:17:41.352Z,8.20
2018-11-05T04:18:46.832Z,8.20
2018-11-05T04:19:52.302Z,8.20
2018-11-05T04:20:57.744Z,8.20
2018-11-05T04:22:03.189Z,8.20
2018-11-05T04:23:08.745Z,8.20
2018-11-05T04:24:15.245Z,8.20
2018-11-05T04:25:20.749Z,8.20
2018-11-05T04:26:26.271Z,8.20
2018-11-05T04:27:31.771Z,8.20
2018-11-05T04:28:37.285Z,8.20
2018-11-05T04:29:42.957Z,8.20
2018-11-05T04:30:48.445Z,8.20
2018-11-05T04:31:53.898Z,8.20
2018-11-05T04:32:59.336Z,8.20
2018-11-05T04:34:05.082Z,8.20
2018-11-05T04:35:11.260Z,8.20
2018-11-05T04:36:16.785Z,8.20
2018-11-05T04:37:22.232Z,8.20
2018-11-05T04:38:27.744Z,8.20
2018-11-05T04:39:33.216Z,8.20
2018-11-05T04:40:38.680Z,8.10
2018-11-05T04:41:44.229Z,8.10
2018-11-05T04:42:49.761Z,8.20
2018-11-05T04:43:55.185Z,8.20
2018-11-05T04:45:00.738Z,8.20
2018-11-05T04:46:06.745Z,8.20
2018-11-05T04:47:12.262Z,8.20
2018-11-05T04:48:17.718Z,8.20
2018-11-05T04:49:23.159Z,8.20
2018-11-05T04:50:28.645Z,8.20
2018-11-05T04:51:34.119Z,8.20
2018-11-05T04:52:40.389Z,8.20
2018-11-05T04:53:45.906Z,8.20
2018-11-05T04:54:51.546Z,8.20
2018-11-05T04:55:57.098Z,8.20
2018-11-05T04:57:02.664Z,8.20
2018-11-05T04:58:08.146Z,8.20
2018-11-05T04:59:13.581Z,8.20
2018-11-05T05:00:19.377Z,8.20
2018-11-05T05:01:24.884Z,8.20
2018-11-05T05:02:30.394Z,8.30
2018-11-05T05:03:35.982Z,8.30
2018-11-05T05:04:41.513Z,8.30
2018-11-05T05:05:47.137Z,8.30
2018-11-05T05:06:52.710Z,8.30
2018-11-05T05:07:58.280Z,8.30
2018-11-05T05:09:04.089Z,8.30
2018-11-05T05:10:10.473Z,8.30
2018-11-05T05:11:16.104Z,8.30
2018-11-05T05:12:21.999Z,8.30
2018-11-05T05:13:27.623Z,8.30
2018-11-05T05:14:33.253Z,8.30
2018-11-05T05:15:38.701Z,8.30
2018-11-05T05:16:44.129Z,8.20
2018-11-05T05:17:49.644Z,8.20
2018-11-05T05:18:55.113Z,8.30
2018-11-05T05:20:00.559Z,8.30
2018-11-05T05:21:06.257Z,8.30
2018-11-05T05:22:11.715Z,8.30
2018-11-05T05:23:17.225Z,8.30
2018-11-05T05:24:22.725Z,8.30
2018-11-05T05:25:28.223Z,8.20
2018-11-05T05:26:33.657Z,8.30
2018-11-05T05:27:39.382Z,8.30
2018-11-05T05:28:45.684Z,8.30
2018-11-05T05:29:51.106Z,8.30
2018-11-05T05:30:56.634Z,8.30
2018-11-05T05:32:02.136Z,8.20
2018-11-05T05:33:07.760Z,8.20
2018-11-05T05:34:13.194Z,8.20
2018-11-05T05:35:19.595Z,8.20
2018-11-05T05:36:25.388Z,8.20
2018-11-05T05:37:30.890Z,8.20
2018-11-05T05:38:36.445Z,8.30
2018-11-05T05:39:41.922Z,8.20
2018-11-05T05:40:47.405Z,8.20
2018-11-05T05:41:52.836Z,8.20
2018-11-05T05:42:58.453Z,8.20
2018-11-05T05:44:04.147Z,8.30
2018-11-05T05:45:11.065Z,8.30
2018-11-05T05:46:16.581Z,8.30
2018-11-05T05:47:22.706Z,8.20
2018-11-05T05:48:28.813Z,8.20
2018-11-05T05:49:34.480Z,8.20
2018-11-05T05:50:40.025Z,8.20
2018-11-05T05:51:45.436Z,8.20
2018-11-05T05:52:50.905Z,8.20
2018-11-05T05:53:56.376Z,8.20
2018-11-05T05:55:01.884Z,8.20
2018-11-05T05:56:13.926Z,8.20
2018-11-05T05:57:19.663Z,8.20
2018-11-05T05:58:25.216Z,8.30
2018-11-05T05:59:30.665Z,8.30
2018-11-05T06:00:36.074Z,8.20
2018-11-05T06:01:41.554Z,8.30
2018-11-05T06:02:47.174Z,8.30
2018-11-05T06:03:52.666Z,8.30
2018-11-05T06:04:58.207Z,8.30
2018-11-05T06:06:03.754Z,8.30
2018-11-05T06:07:09.277Z,8.30
2018-11-05T06:08:14.792Z,8.30
2018-11-05T06:09:20.318Z,8.30
2018-11-05T06:10:25.736Z,8.30
2018-11-05T06:11:31.427Z,8.30
2018-11-05T06:12:37.027Z,8.30
2018-11-05T06:13:42.478Z,8.30
2018-11-05T06:14:47.960Z,8.30
2018-11-05T06:15:53.478Z,8.40
2018-11-05T06:16:59.049Z,8.30
2018-11-05T06:18:04.524Z,8.40
2018-11-05T06:19:10.050Z,8.30
2018-11-05T06:20:17.705Z,8.40
2018-11-05T06:21:23.178Z,8.40
2018-11-05T06:22:28.627Z,8.40
2018-11-05T06:23:34.182Z,8.40
2018-11-05T06:24:39.708Z,8.40
2018-11-05T06:25:45.179Z,8.40
2018-11-05T06:26:50.786Z,8.40
2018-11-05T06:27:56.422Z,8.50
2018-11-05T06:29:02.155Z,8.40
2018-11-05T06:30:11.886Z,8.40
2018-11-05T06:31:17.461Z,8.40
2018-11-05T06:32:23.001Z,8.40
2018-11-05T06:33:28.782Z,8.50
2018-11-05T06:34:34.504Z,8.40
2018-11-05T06:35:40.057Z,8.40
2018-11-05T06:36:45.581Z,8.40
2018-11-05T06:37:51.001Z,8.40
2018-11-05T06:38:56.549Z,8.50
2018-11-05T06:40:02.105Z,8.50
2018-11-05T06:41:08.343Z,8.50
2018-11-05T06:42:13.861Z,8.50
2018-11-05T06:43:19.320Z,8.50
2018-11-05T06:44:24.962Z,8.50
2018-11-05T06:45:30.480Z,8.50
2018-11-05T06:46:35.984Z,8.50
2018-11-05T06:47:43.023Z,8.60
2018-11-05T06:48:48.591Z,8.50
2018-11-05T06:49:54.090Z,8.50
2018-11-05T06:50:59.554Z,8.50
2018-11-05T06:52:05.131Z,8.60
2018-11-05T06:53:10.596Z,8.70
2018-11-05T06:54:16.097Z,8.70
2018-11-05T06:55:21.635Z,8.70
2018-11-05T06:56:27.140Z,8.70
2018-11-05T06:57:32.563Z,8.70
2018-11-05T06:58:37.999Z,8.70
2018-11-05T06:59:43.473Z,8.70
2018-11-05T07:00:48.959Z,8.70
2018-11-05T07:01:54.466Z,8.70
2018-11-05T07:02:59.965Z,8.80
2018-11-05T07:04:05.881Z,8.80
2018-11-05T07:05:11.506Z,8.70
2018-11-05T07:06:16.961Z,8.80
2018-11-05T07:07:22.385Z,8.80
2018-11-05T07:08:27.928Z,8.80
2018-11-05T07:09:33.366Z,8.80
2018-11-05T07:10:38.934Z,8.80
2018-11-05T07:11:44.546Z,8.80
2018-11-05T07:12:50.176Z,8.90
2018-11-05T07:13:55.597Z,8.80
2018-11-05T07:15:01.047Z,8.80
2018-11-05T07:16:06.516Z,8.80
2018-11-05T07:17:11.961Z,8.80
2018-11-05T07:18:17.574Z,8.90
2018-11-05T07:19:23.260Z,8.90
2018-11-05T07:20:28.684Z,8.90
2018-11-05T07:21:34.389Z,9.00
2018-11-05T07:22:40.022Z,9.00
2018-11-05T07:23:45.573Z,9.00
2018-11-05T07:24:51.179Z,9.00
2018-11-05T07:25:56.745Z,9.00
2018-11-05T07:27:02.272Z,9.00
2018-11-05T07:28:09.082Z,9.00
2018-11-05T07:29:14.547Z,9.00
2018-11-05T07:30:22.474Z,9.00
2018-11-05T07:31:27.974Z,9.10
2018-11-05T07:32:33.427Z,9.10
2018-11-05T07:33:38.921Z,9.10
2018-11-05T07:34:44.403Z,9.10
2018-11-05T07:35:49.862Z,9.10
2018-11-05T07:36:55.374Z,9.10
2018-11-05T07:38:00.956Z,9.10
2018-11-05T07:39:10.810Z,9.10
2018-11-05T07:40:17.298Z,9.10
2018-11-05T07:41:22.945Z,9.10
2018-11-05T07:42:28.753Z,9.10
2018-11-05T07:43:34.224Z,9.10
2018-11-05T07:44:39.649Z,9.10
2018-11-05T07:45:45.116Z,9.10
2018-11-05T07:46:50.614Z,9.10
2018-11-05T07:47:56.166Z,9.10
2018-11-05T07:49:01.955Z,9.10
2018-11-05T07:50:10.590Z,9.20
2018-11-05T07:51:16.159Z,9.20
2018-11-05T07:52:21.637Z,9.20
2018-11-05T07:53:27.105Z,9.20
2018-11-05T07:54:32.613Z,9.20
2018-11-05T07:55:38.137Z,9.30
2018-11-05T07:56:43.693Z,9.30
2018-11-05T07:57:50.068Z,9.30
2018-11-05T07:58:55.581Z,9.30
2018-11-05T08:00:01.425Z,9.30
2018-11-05T08:01:07.526Z,9.40
2018-11-05T08:02:12.953Z,9.40
2018-11-05T08:03:18.482Z,9.40
2018-11-05T08:04:24.129Z,9.40
2018-11-05T08:05:29.685Z,9.40
2018-11-05T08:06:35.121Z,9.40
2018-11-05T08:07:40.564Z,9.40
2018-11-05T08:08:46.089Z,9.50
2018-11-05T08:09:51.543Z,9.50
2018-11-05T08:10:57.105Z,9.50
2018-11-05T08:12:02.729Z,9.50
2018-11-05T08:13:08.352Z,9.50
2018-11-05T08:14:13.824Z,9.50
2018-11-05T08:15:20.561Z,9.50
2018-11-05T08:16:26.129Z,9.50
2018-11-05T08:17:31.709Z,9.60
2018-11-05T08:18:37.301Z,9.60
2018-11-05T08:19:42.799Z,9.50
2018-11-05T08:20:48.382Z,9.60
2018-11-05T08:21:53.809Z,9.60
2018-11-05T08:22:59.259Z,9.70
2018-11-05T08:24:05.062Z,9.70
2018-11-05T08:25:11.677Z,9.70
2018-11-05T08:26:17.191Z,9.70
2018-11-05T08:27:22.669Z,9.70
2018-11-05T08:28:28.240Z,9.60
2018-11-05T08:29:33.674Z,9.70
2018-11-05T08:30:39.339Z,9.70
2018-11-05T08:31:44.745Z,9.80
2018-11-05T08:32:50.288Z,9.80
2018-11-05T08:33:55.685Z,9.80
2018-11-05T08:35:01.225Z,9.80
2018-11-05T08:36:06.970Z,9.80
2018-11-05T08:37:12.545Z,9.80
2018-11-05T08:38:18.145Z,9.70
2018-11-05T08:39:23.611Z,9.70
2018-11-05T08:40:30.555Z,9.70
2018-11-05T08:41:36.050Z,9.70
2018-11-05T08:42:41.903Z,9.70
2018-11-05T08:43:47.398Z,9.70
2018-11-05T08:44:52.846Z,9.70
2018-11-05T08:45:58.392Z,9.70
2018-11-05T08:47:03.885Z,9.70
2018-11-05T08:48:09.305Z,9.70
2018-11-05T08:49:14.871Z,9.70
2018-11-05T08:50:21.714Z,9.70
2018-11-05T08:51:27.360Z,9.70
2018-11-05T08:52:32.577Z,9.60
2018-11-05T08:53:38.008Z,9.70
2018-11-05T08:54:43.482Z,9.70
2018-11-05T08:55:48.917Z,9.70
2018-11-05T08:56:54.389Z,9.70
2018-11-05T08:57:59.895Z,9.70
2018-11-05T08:59:05.501Z,9.70
2018-11-05T09:00:21.413Z,9.70
2018-11-05T09:01:33.534Z,9.70
2018-11-05T09:02:39.019Z,9.70
2018-11-05T09:03:44.700Z,9.70
2018-11-05T09:04:50.346Z,9.70
2018-11-05T09:05:55.751Z,9.70
2018-11-05T09:07:01.305Z,9.70
2018-11-05T09:08:06.781Z,9.70
2018-11-05T09:09:12.234Z,9.70
2018-11-05T09:10:18.022Z,9.80
2018-11-05T09:11:23.790Z,9.80
2018-11-05T09:12:28.952Z,9.80
2018-11-05T09:13:34.476Z,9.80
2018-11-05T09:14:40.230Z,9.80
2018-11-05T09:15:45.677Z,9.80
2018-11-05T09:16:51.124Z,9.90
2018-11-05T09:17:56.596Z,9.80
2018-11-05T09:19:02.097Z,9.90
2018-11-05T09:20:10.056Z,9.90
2018-11-05T09:21:15.578Z,9.90
2018-11-05T09:22:20.981Z,9.90
2018-11-05T09:23:26.526Z,9.90
2018-11-05T09:24:32.005Z,9.90
2018-11-05T09:25:37.541Z,10.00
2018-11-05T09:26:43.103Z,10.10
2018-11-05T09:27:48.661Z,10.10
2018-11-05T09:28:54.110Z,10.10
2018-11-05T09:29:59.585Z,10.10
2018-11-05T09:31:05.106Z,10.10
2018-11-05T09:32:10.684Z,10.10
2018-11-05T09:33:16.320Z,10.20
2018-11-05T09:34:21.826Z,10.20
2018-11-05T09:35:27.338Z,10.30
2018-11-05T09:36:32.914Z,10.30
2018-11-05T09:37:38.425Z,10.30
2018-11-05T09:38:43.922Z,10.40
2018-11-05T09:39:49.492Z,10.50
2018-11-05T09:40:55.096Z,10.40
2018-11-05T09:42:00.589Z,10.40
2018-11-05T09:43:06.865Z,10.50
2018-11-05T09:44:12.261Z,10.50
2018-11-05T09:45:20.385Z,10.50
2018-11-05T09:46:25.895Z,10.50
2018-11-05T09:47:31.447Z,10.50
2018-11-05T09:48:36.990Z,10.50
2018-11-05T09:49:42.461Z,10.60
2018-11-05T09:50:48.026Z,10.60
2018-11-05T09:51:53.422Z,10.60
2018-11-05T09:52:59.069Z,10.60
2018-11-05T09:54:04.869Z,10.50
2018-11-05T09:55:11.385Z,10.50
2018-11-05T09:56:16.918Z,10.50
2018-11-05T09:57:22.389Z,10.50
2018-11-05T09:58:27.901Z,10.50
2018-11-05T09:59:33.429Z,10.50
2018-11-05T10:00:40.428Z,10.50
2018-11-05T10:01:45.947Z,10.50
2018-11-05T10:02:56.838Z,10.50
2018-11-05T10:04:02.427Z,10.50
2018-11-05T10:05:08.105Z,10.60
2018-11-05T10:06:13.336Z,10.60
2018-11-05T10:07:18.951Z,10.60
2018-11-05T10:08:24.484Z,10.60
2018-11-05T10:09:29.981Z,10.60
2018-11-05T10:10:35.570Z,10.50
2018-11-05T10:11:41.013Z,10.50
2018-11-05T10:12:46.755Z,10.50
2018-11-05T10:13:52.440Z,10.50
2018-11-05T10:14:59.900Z,10.60
2018-11-05T10:16:11.016Z,10.60
2018-11-05T10:17:16.553Z,10.70
2018-11-05T10:18:22.037Z,10.70
2018-11-05T10:19:27.465Z,10.70
2018-11-05T10:20:32.930Z,10.70
2018-11-05T10:21:38.531Z,10.70
2018-11-05T10:22:44.603Z,10.70
2018-11-05T10:23:50.104Z,10.70
2018-11-05T10:24:56.033Z,10.70
2018-11-05T10:26:01.522Z,10.80
2018-11-05T10:27:07.124Z,10.80
2018-11-05T10:28:12.699Z,10.90
2018-11-05T10:29:18.117Z,10.90
2018-11-05T10:30:25.983Z,10.90
2018-11-05T10:31:31.529Z,10.80
2018-11-05T10:32:36.984Z,10.70
2018-11-05T10:33:44.697Z,10.70
2018-11-05T10:34:50.222Z,10.70
2018-11-05T10:35:56.949Z,10.70
2018-11-05T10:37:02.413Z,10.70
2018-11-05T10:38:07.980Z,10.70
2018-11-05T10:39:13.596Z,10.70
2018-11-05T10:40:20.091Z,10.70
2018-11-05T10:41:25.497Z,10.60
2018-11-05T10:42:31.062Z,10.50
2018-11-05T10:43:36.597Z,10.60
2018-11-05T10:44:42.065Z,10.50
2018-11-05T10:45:47.551Z,10.50
2018-11-05T10:46:52.987Z,10.50
2018-11-05T10:47:58.469Z,10.60
2018-11-05T10:49:04.050Z,10.50
2018-11-05T10:50:11.628Z,10.50
2018-11-05T10:51:17.263Z,10.50
2018-11-05T10:52:22.656Z,10.50
2018-11-05T10:53:28.357Z,10.50
2018-11-05T10:54:33.845Z,10.40
2018-11-05T10:55:39.302Z,10.50
2018-11-05T10:56:44.772Z,10.50
2018-11-05T10:57:50.668Z,10.50
2018-11-05T10:58:56.155Z,10.50
2018-11-05T11:00:01.674Z,10.50
2018-11-05T11:01:14.492Z,10.50
2018-11-05T11:02:25.010Z,10.50
2018-11-05T11:03:35.950Z,10.50
2018-11-05T11:04:41.392Z,10.50
2018-11-05T11:05:46.876Z,10.50
2018-11-05T11:06:52.333Z,10.50
2018-11-05T11:07:58.740Z,10.50
2018-11-05T11:09:04.794Z,10.60
2018-11-05T11:10:10.276Z,10.60
2018-11-05T11:11:15.968Z,10.60
2018-11-05T11:12:21.530Z,10.60
2018-11-05T11:13:27.071Z,10.60
2018-11-05T11:14:32.538Z,10.50
2018-11-05T11:15:38.013Z,10.50
2018-11-05T11:16:43.544Z,10.50
2018-11-05T11:17:49.092Z,10.50
2018-11-05T11:18:54.581Z,10.50
2018-11-05T11:20:00.054Z,10.50
2018-11-05T11:21:06.666Z,10.50
2018-11-05T11:22:12.276Z,10.60
2018-11-05T11:23:17.892Z,10.60
2018-11-05T11:24:23.437Z,10.60
2018-11-05T11:25:28.958Z,10.50
2018-11-05T11:26:34.455Z,10.60
2018-11-05T11:27:39.925Z,10.60
2018-11-05T11:28:45.556Z,10.60
2018-11-05T11:29:50.938Z,10.60
2018-11-05T11:30:56.725Z,10.60
2018-11-05T11:32:02.281Z,10.60
2018-11-05T11:33:07.993Z,10.60
2018-11-05T11:34:13.650Z,10.60
2018-11-05T11:35:19.203Z,10.60
2018-11-05T11:36:24.758Z,10.60
2018-11-05T11:37:30.489Z,10.70
2018-11-05T11:38:36.230Z,10.60
2018-11-05T11:39:41.686Z,10.70
2018-11-05T11:40:47.175Z,10.70
2018-11-05T11:41:52.682Z,10.70
2018-11-05T11:42:59.052Z,10.70
2018-11-05T11:44:05.074Z,10.70
2018-11-05T11:45:11.897Z,10.70
2018-11-05T11:46:17.549Z,10.60
2018-11-05T11:47:23.120Z,10.70
2018-11-05T11:48:28.585Z,10.60
2018-11-05T11:49:34.051Z,10.70
2018-11-05T11:50:39.482Z,10.60
2018-11-05T11:51:44.912Z,10.60
2018-11-05T11:52:50.797Z,10.60
2018-11-05T11:53:56.140Z,10.60
2018-11-05T11:55:01.606Z,10.60
2018-11-05T11:56:07.102Z,10.60
2018-11-05T11:57:12.613Z,10.60
2018-11-05T11:58:18.205Z,10.70
2018-11-05T11:59:23.733Z,10.60
2018-11-05T12:00:29.264Z,10.70
2018-11-05T12:01:39.632Z,10.70
2018-11-05T12:02:45.477Z,10.70
2018-11-05T12:03:51.184Z,10.70
2018-11-05T12:04:56.831Z,10.70
2018-11-05T12:06:02.220Z,10.70
2018-11-05T12:07:08.128Z,10.70
2018-11-05T12:08:13.670Z,10.70
2018-11-05T12:09:21.334Z,10.70
2018-11-05T12:10:26.915Z,10.70
2018-11-05T12:11:32.321Z,10.80
2018-11-05T12:12:37.800Z,10.70
2018-11-05T12:13:43.206Z,10.70
2018-11-05T12:14:48.951Z,10.70
2018-11-05T12:15:54.457Z,10.70
2018-11-05T12:17:00.065Z,10.80
2018-11-05T12:18:05.802Z,10.80
2018-11-05T12:19:11.265Z,10.80
2018-11-05T12:20:24.477Z,10.80
2018-11-05T12:21:29.925Z,10.80
2018-11-05T12:22:35.377Z,10.80
2018-11-05T12:23:40.800Z,10.80
2018-11-05T12:24:46.317Z,10.80
2018-11-05T12:25:51.856Z,10.80
2018-11-05T12:26:57.404Z,10.80
2018-11-05T12:28:02.945Z,10.80
2018-11-05T12:29:08.466Z,10.80
2018-11-05T12:30:17.873Z,10.90
2018-11-05T12:31:23.400Z,10.80
2018-11-05T12:32:28.849Z,10.90
2018-11-05T12:33:34.314Z,10.90
2018-11-05T12:34:39.824Z,10.90
2018-11-05T12:35:45.372Z,10.90
2018-11-05T12:36:50.998Z,10.80
2018-11-05T12:37:56.770Z,10.90
2018-11-05T12:39:02.265Z,10.90
2018-11-05T12:40:10.513Z,10.90
2018-11-05T12:41:16.038Z,10.90
2018-11-05T12:42:21.738Z,10.90
2018-11-05T12:43:27.244Z,10.90
2018-11-05T12:44:32.749Z,10.90
2018-11-05T12:45:38.291Z,10.90
2018-11-05T12:46:43.729Z,10.80
2018-11-05T12:47:49.210Z,10.90
2018-11-05T12:48:54.662Z,10.90
2018-11-05T12:50:00.267Z,10.90
2018-11-05T12:51:06.546Z,10.80
2018-11-05T12:52:12.000Z,10.90
2018-11-05T12:53:17.486Z,10.90
2018-11-05T12:54:23.208Z,11.00
2018-11-05T12:55:29.009Z,10.90
2018-11-05T12:56:34.648Z,10.90
2018-11-05T12:57:40.112Z,10.90
2018-11-05T12:58:45.664Z,10.90
2018-11-05T12:59:51.142Z,11.00
2018-11-05T13:00:56.646Z,11.00
2018-11-05T13:02:02.063Z,11.00
2018-11-05T13:03:07.502Z,11.00
2018-11-05T13:04:12.985Z,11.00
2018-11-05T13:05:18.856Z,11.00
2018-11-05T13:06:24.306Z,11.00
2018-11-05T13:07:29.857Z,11.00
2018-11-05T13:08:35.409Z,11.00
2018-11-05T13:09:41.040Z,11.00
2018-11-05T13:10:46.552Z,11.00
2018-11-05T13:11:52.085Z,11.00
2018-11-05T13:12:57.577Z,11.10
2018-11-05T13:14:03.094Z,11.00
2018-11-05T13:15:10.295Z,11.00
2018-11-05T13:16:15.831Z,11.00
2018-11-05T13:17:21.615Z,11.00
2018-11-05T13:18:27.234Z,11.00
2018-11-05T13:19:32.730Z,11.00
2018-11-05T13:20:38.210Z,11.10
2018-11-05T13:21:43.859Z,11.10
2018-11-05T13:22:49.343Z,11.00
2018-11-05T13:23:55.022Z,11.00
2018-11-05T13:25:00.457Z,11.00
2018-11-05T13:26:06.318Z,11.00
2018-11-05T13:27:11.782Z,11.00
2018-11-05T13:28:17.287Z,11.00
2018-11-05T13:29:22.700Z,11.00
2018-11-05T13:30:28.152Z,10.90
2018-11-05T13:31:33.657Z,10.90
2018-11-05T13:32:39.449Z,10.90
2018-11-05T13:33:44.985Z,10.90
2018-11-05T13:34:50.410Z,10.90
2018-11-05T13:35:55.853Z,10.90
2018-11-05T13:37:01.519Z,10.90
2018-11-05T13:38:07.407Z,10.90
2018-11-05T13:39:12.703Z,11.00
2018-11-05T13:40:23.152Z,10.90
2018-11-05T13:41:28.770Z,10.90
2018-11-05T13:42:34.500Z,10.90
2018-11-05T13:43:40.080Z,10.90
2018-11-05T13:44:45.790Z,11.00
2018-11-05T13:45:51.504Z,11.00
2018-11-05T13:46:57.293Z,11.00
2018-11-05T13:48:02.508Z,11.00
2018-11-05T13:49:08.412Z,11.10
2018-11-05T13:50:13.869Z,11.10
2018-11-05T13:51:19.320Z,11.00
2018-11-05T13:52:24.951Z,11.00
2018-11-05T13:53:30.361Z,11.10
2018-11-05T13:54:35.938Z,11.00
2018-11-05T13:55:41.458Z,11.00
2018-11-05T13:56:47.073Z,11.00
2018-11-05T13:57:52.709Z,11.00
2018-11-05T13:58:58.122Z,11.00
2018-11-05T14:00:04.066Z,11.00
2018-11-05T14:01:09.658Z,11.00
2018-11-05T14:02:15.236Z,11.00
2018-11-05T14:03:20.675Z,11.00
2018-11-05T14:04:26.252Z,11.00
2018-11-05T14:05:31.750Z,11.00
2018-11-05T14:06:37.230Z,11.00
2018-11-05T14:07:42.770Z,11.00
2018-11-05T14:08:48.209Z,10.90
2018-11-05T14:09:53.715Z,11.00
2018-11-05T14:10:59.332Z,11.00
2018-11-05T14:12:04.844Z,11.00
2018-11-05T14:13:10.340Z,11.10
2018-11-05T14:14:15.813Z,11.10
2018-11-05T14:15:21.641Z,11.10
2018-11-05T14:16:27.154Z,11.10
2018-11-05T14:17:32.873Z,11.10
2018-11-05T14:18:38.460Z,11.10
2018-11-05T14:19:43.983Z,11.10
2018-11-05T14:20:49.558Z,11.10
2018-11-05T14:21:54.952Z,11.10
2018-11-05T14:23:00.436Z,11.10
2018-11-05T14:24:06.250Z,11.10
2018-11-05T14:25:13.791Z,11.10